Time;durP1;ratioP1;P1;durP2;ratioP2;P2;SDS_P1;SDS_P2;PMS_P1;PMS_P2;Temp;Humidity;BMP_temperature;BMP_pressure;BME280_temperature;BME280_humidity;BME280_pressure;Samples;Min_cycle;Max_cycle;Signal;HPM_P1;HPM_P2
2022/12/25 00:00:14;;;;;;;8.43;3.78;;;7.00;99.30;;;;;;5005859;28;20880;-66
2022/12/25 00:02:39;;;;;;;8.20;3.47;;;7.00;99.30;;;;;;5002894;28;20034;-66
2022/12/25 00:05:05;;;;;;;8.60;3.22;;;7.00;99.30;;;;;;4990179;28;20108;-67
2022/12/25 00:07:31;;;;;;;6.50;3.08;;;7.00;99.20;;;;;;4996446;28;20034;-66
2022/12/25 00:09:57;;;;;;;7.85;3.65;;;6.90;99.30;;;;;;5001714;28;20040;-66
2022/12/25 00:12:23;;;;;;;7.18;3.25;;;6.90;99.40;;;;;;4992655;28;20022;-67
2022/12/25 00:14:49;;;;;;;12.63;3.75;;;6.90;99.40;;;;;;4995103;28;20022;-66
2022/12/25 00:17:15;;;;;;;9.85;3.75;;;6.80;99.40;;;;;;4994792;28;20506;-66
2022/12/25 00:19:41;;;;;;;8.18;3.50;;;6.80;99.30;;;;;;5001747;28;20056;-66
2022/12/25 00:22:07;;;;;;;7.93;3.72;;;6.80;99.30;;;;;;4998332;28;20133;-67
2022/12/25 00:24:32;;;;;;;6.53;3.72;;;6.80;99.40;;;;;;4997275;28;20557;-67
2022/12/25 00:26:58;;;;;;;8.55;3.75;;;6.70;99.30;;;;;;4993401;28;20037;-67
2022/12/25 00:29:24;;;;;;;8.27;3.90;;;6.70;99.30;;;;;;4991531;28;20041;-66
2022/12/25 00:31:51;;;;;;;10.05;3.38;;;6.70;99.30;;;;;;4994356;28;20038;-66
2022/12/25 00:34:17;;;;;;;6.82;3.53;;;6.70;99.30;;;;;;5003032;28;20042;-66
2022/12/25 00:36:43;;;;;;;8.00;3.72;;;6.60;99.30;;;;;;5005749;28;20139;-67
2022/12/25 00:39:09;;;;;;;7.00;3.40;;;6.60;99.40;;;;;;4999699;28;20487;-66
2022/12/25 00:44:19;;;;;;;8.35;3.20;;;6.50;99.40;;;;;;5012270;28;20822;-66
2022/12/25 00:46:45;;;;;;;8.38;3.60;;;6.50;99.50;;;;;;4999402;28;20042;-66
2022/12/25 00:49:11;;;;;;;9.05;3.97;;;6.50;99.50;;;;;;4999915;28;20718;-66
2022/12/25 00:51:37;;;;;;;5.03;3.45;;;6.50;99.60;;;;;;4992985;28;20125;-67
2022/12/25 00:54:03;;;;;;;9.27;4.03;;;6.50;99.60;;;;;;4998638;28;20168;-66
2022/12/25 00:56:28;;;;;;;11.05;3.50;;;6.50;99.60;;;;;;4992622;28;20038;-67
2022/12/25 00:58:54;;;;;;;7.35;3.90;;;6.50;99.60;;;;;;4993999;28;20049;-66
2022/12/25 01:01:20;;;;;;;7.10;4.03;;;6.50;99.60;;;;;;4995660;28;20038;-67
2022/12/25 01:03:46;;;;;;;12.43;4.32;;;6.50;99.90;;;;;;4997610;28;20033;-66
2022/12/25 01:06:12;;;;;;;8.55;3.70;;;6.50;99.60;;;;;;5003732;28;20037;-67
2022/12/25 01:11:27;;;;;;;5.97;3.65;;;6.50;99.60;;;;;;4986921;28;20060;-67
2022/12/25 01:13:53;;;;;;;9.88;3.92;;;6.40;99.60;;;;;;4997389;28;20624;-66
2022/12/25 01:16:19;;;;;;;8.80;4.07;;;6.40;99.60;;;;;;4998584;28;20111;-67
2022/12/25 01:18:45;;;;;;;8.85;3.97;;;6.50;99.50;;;;;;4996772;28;20096;-67
2022/12/25 01:21:16;;;;;;;7.28;4.30;;;6.40;99.50;;;;;;4992835;28;20641;-67
2022/12/25 01:23:43;;;;;;;7.80;3.67;;;6.40;99.50;;;;;;4994158;28;20498;-67
2022/12/25 01:26:12;;;;;;;9.00;3.72;;;6.40;99.60;;;;;;4994072;28;20030;-67
2022/12/25 01:28:38;;;;;;;8.52;4.60;;;6.30;99.60;;;;;;5003948;28;20486;-67
2022/12/25 01:31:07;;;;;;;9.23;3.60;;;6.30;99.60;;;;;;4995999;28;20517;-67
2022/12/25 01:33:33;;;;;;;11.68;4.35;;;6.30;99.60;;;;;;4998286;28;20108;-67
2022/12/25 01:35:59;;;;;;;7.47;3.58;;;6.30;99.70;;;;;;5001419;28;20957;-66
2022/12/25 01:38:24;;;;;;;6.18;3.63;;;6.30;99.60;;;;;;4993077;28;20141;-66
2022/12/25 01:40:50;;;;;;;7.85;3.70;;;6.20;99.60;;;;;;4997177;28;20137;-67
2022/12/25 01:43:25;;;;;;;7.30;3.80;;;6.20;99.70;;;;;;4993777;28;20061;-67
2022/12/25 01:45:54;;;;;;;11.07;4.30;;;6.20;99.80;;;;;;4993185;28;20038;-67
2022/12/25 01:48:27;;;;;;;7.35;4.20;;;6.20;99.70;;;;;;4998326;28;20072;-67
2022/12/25 01:50:57;;;;;;;9.55;4.05;;;6.20;99.60;;;;;;4990905;28;20121;-67
2022/12/25 01:53:24;;;;;;;8.88;4.03;;;6.20;99.50;;;;;;5000256;28;20033;-66
2022/12/25 01:55:56;;;;;;;8.00;4.22;;;6.20;99.60;;;;;;4994638;28;20851;-67
2022/12/25 01:58:22;;;;;;;8.07;4.18;;;6.20;99.60;;;;;;4999407;28;20646;-66
2022/12/25 02:00:50;;;;;;;7.22;3.90;;;6.10;99.60;;;;;;4997429;28;20522;-67
2022/12/25 02:03:16;;;;;;;9.18;4.78;;;6.10;99.60;;;;;;4998098;28;20036;-66
2022/12/25 02:05:44;;;;;;;11.30;4.65;;;6.10;99.70;;;;;;4999832;28;20037;-66
2022/12/25 02:08:13;;;;;;;9.57;4.07;;;6.10;99.70;;;;;;4983125;28;20026;-66
2022/12/25 02:10:39;;;;;;;8.75;3.40;;;6.10;99.70;;;;;;4998599;28;20563;-67
2022/12/25 02:13:06;;;;;;;8.07;3.58;;;6.10;99.60;;;;;;4994679;28;20034;-67
2022/12/25 02:15:57;;;;;;;8.30;3.63;;;6.10;99.60;;;;;;4994800;28;20135;-67
2022/12/25 02:18:42;;;;;;;14.07;4.80;;;6.10;99.60;;;;;;4990731;28;20030;-65
2022/12/25 02:21:41;;;;;;;9.77;4.28;;;6.00;99.70;;;;;;4994162;28;20027;-65
2022/12/25 02:24:25;;;;;;;7.93;4.07;;;6.00;99.80;;;;;;4992969;28;20041;-66
2022/12/25 02:27:05;;;;;;;7.53;4.03;;;6.00;99.70;;;;;;4998454;28;20509;-66
2022/12/25 02:29:36;;;;;;;7.93;3.60;;;6.00;99.70;;;;;;4994716;28;20026;-66
2022/12/25 02:32:14;;;;;;;8.05;3.92;;;5.90;99.80;;;;;;4999860;28;20402;-65
2022/12/25 02:34:43;;;;;;;9.32;4.30;;;5.90;99.80;;;;;;4995917;28;20041;-66
2022/12/25 02:37:34;;;;;;;10.63;4.35;;;5.90;99.80;;;;;;4995880;28;20042;-66
2022/12/25 02:40:26;;;;;;;8.93;4.45;;;5.90;99.90;;;;;;4998487;28;20051;-66
2022/12/25 03:08:41;;;;;;;12.70;4.82;;;5.80;99.90;;;;;;4998134;28;20034;-65
2022/12/25 03:16:54;;;;;;;7.97;4.43;;;5.80;99.90;;;;;;4990672;28;20713;-65
2022/12/25 03:27:45;;;;;;;8.70;4.47;;;5.80;99.90;;;;;;4994111;28;20034;-65
2022/12/25 03:33:15;;;;;;;10.98;4.72;;;5.80;99.90;;;;;;4995978;28;20052;-66
2022/12/25 03:35:47;;;;;;;11.27;4.03;;;5.80;99.90;;;;;;4992974;28;20034;-66
2022/12/25 04:37:22;;;;;;;11.98;4.32;;;5.30;99.90;;;;;;4998170;28;20579;-65
2022/12/25 04:39:48;;;;;;;7.72;3.65;;;5.30;99.70;;;;;;5001209;28;20030;-65
2022/12/25 04:42:15;;;;;;;5.63;3.75;;;5.30;99.60;;;;;;4999667;28;20042;-66
2022/12/25 04:44:41;;;;;;;7.20;2.95;;;5.20;99.40;;;;;;5000384;28;20975;-66
2022/12/25 04:47:07;;;;;;;9.32;4.07;;;5.20;99.10;;;;;;4993787;28;20041;-65
2022/12/25 04:49:33;;;;;;;9.52;4.55;;;5.10;99.10;;;;;;4999155;28;20045;-65
2022/12/25 04:51:58;;;;;;;6.70;3.60;;;5.10;99.20;;;;;;4997556;28;20034;-65
2022/12/25 04:54:24;;;;;;;7.03;4.00;;;5.00;99.10;;;;;;4997503;28;20064;-65
2022/12/25 04:56:50;;;;;;;5.57;3.75;;;5.00;99.10;;;;;;4991004;28;20422;-66
2022/12/25 04:59:16;;;;;;;9.30;4.38;;;4.90;98.90;;;;;;5002325;28;20035;-66
2022/12/25 05:01:41;;;;;;;7.10;3.70;;;4.90;98.80;;;;;;5000975;28;20042;-65
2022/12/25 05:04:07;;;;;;;11.07;4.40;;;4.90;98.70;;;;;;4995758;28;20452;-66
2022/12/25 05:06:33;;;;;;;12.40;4.43;;;4.80;98.90;;;;;;4998528;28;20037;-65
2022/12/25 05:08:59;;;;;;;6.68;3.65;;;4.80;99.10;;;;;;4999394;28;20038;-65
2022/12/25 05:11:24;;;;;;;9.15;3.97;;;4.70;99.20;;;;;;4992693;28;20137;-65
2022/12/25 05:13:50;;;;;;;10.63;4.90;;;4.70;99.10;;;;;;4994390;28;20607;-66
2022/12/25 05:16:18;;;;;;;10.57;4.20;;;4.70;99.20;;;;;;4996396;28;20041;-65
2022/12/25 05:18:47;;;;;;;10.73;4.82;;;4.70;99.30;;;;;;4998676;28;20052;-65
2022/12/25 05:21:13;;;;;;;10.00;4.82;;;4.70;99.40;;;;;;4994833;28;20034;-65
2022/12/25 05:23:47;;;;;;;7.47;4.55;;;4.70;99.40;;;;;;4996441;28;20040;-65
2022/12/25 05:26:18;;;;;;;9.93;5.28;;;4.70;99.30;;;;;;4997700;28;20034;-66
2022/12/25 05:28:44;;;;;;;8.18;4.55;;;4.70;99.30;;;;;;4993241;28;20035;-66
2022/12/25 05:31:10;;;;;;;9.48;3.85;;;4.70;99.20;;;;;;4990064;28;20099;-65
2022/12/25 05:33:36;;;;;;;10.18;4.80;;;4.70;99.30;;;;;;4980551;28;20811;-66
2022/12/25 05:36:07;;;;;;;10.23;5.05;;;4.70;99.30;;;;;;4988276;28;20030;-65
2022/12/25 05:38:34;;;;;;;16.33;5.38;;;4.60;99.50;;;;;;5000250;28;20029;-70
2022/12/25 05:41:00;;;;;;;12.45;5.07;;;4.60;99.70;;;;;;4996734;28;20692;-65
2022/12/25 05:43:27;;;;;;;11.43;4.50;;;4.70;99.80;;;;;;4995600;28;20121;-64
2022/12/25 05:45:52;;;;;;;13.15;5.07;;;4.60;99.80;;;;;;5000137;28;20043;-64
2022/12/25 05:48:18;;;;;;;15.48;5.55;;;4.70;99.90;;;;;;4995003;28;20044;-65
2022/12/25 05:50:44;;;;;;;13.32;5.50;;;4.70;99.90;;;;;;4994519;28;20805;-66
2022/12/25 05:53:12;;;;;;;14.30;6.18;;;4.70;99.90;;;;;;4995283;28;20029;-65
2022/12/25 05:55:40;;;;;;;12.75;7.28;;;4.70;99.90;;;;;;4993361;28;20030;-66
2022/12/25 05:58:07;;;;;;;17.88;7.03;;;4.70;99.90;;;;;;4998294;28;20026;-66
2022/12/25 06:00:33;;;;;;;12.48;5.05;;;4.70;99.90;;;;;;4997737;28;20118;-65
2022/12/25 06:02:59;;;;;;;9.70;4.97;;;4.70;99.90;;;;;;4992013;28;20030;-65
2022/12/25 06:05:25;;;;;;;15.13;5.03;;;4.70;99.90;;;;;;4991293;28;20042;-70
2022/12/25 06:07:51;;;;;;;7.20;4.13;;;4.70;99.90;;;;;;4988146;28;20037;-65
2022/12/25 06:10:17;;;;;;;12.88;4.82;;;4.70;99.90;;;;;;4995376;28;20640;-66
2022/12/25 06:12:42;;;;;;;13.05;5.10;;;4.70;99.90;;;;;;4993415;28;20489;-67
2022/12/25 06:15:08;;;;;;;9.50;4.65;;;4.70;99.90;;;;;;4994341;28;20134;-67
2022/12/25 06:17:34;;;;;;;9.50;5.00;;;4.70;99.80;;;;;;4996027;28;20112;-66
2022/12/25 06:20:00;;;;;;;7.82;4.13;;;4.60;99.50;;;;;;4988592;28;20065;-66
2022/12/25 06:22:30;;;;;;;10.50;4.88;;;4.60;99.40;;;;;;4992844;28;20088;-68
2022/12/25 06:24:56;;;;;;;9.77;4.78;;;4.60;99.50;;;;;;4990180;28;20394;-66
2022/12/25 06:27:23;;;;;;;11.07;5.38;;;4.60;99.40;;;;;;4994991;28;20040;-65
2022/12/25 06:29:48;;;;;;;10.30;4.72;;;4.60;99.30;;;;;;4987690;28;20042;-65
2022/12/25 06:32:14;;;;;;;12.63;4.85;;;4.60;99.00;;;;;;4994609;28;20033;-65
2022/12/25 06:34:40;;;;;;;8.30;4.60;;;4.60;99.30;;;;;;4991476;28;20034;-66
2022/12/25 06:37:06;;;;;;;8.63;4.22;;;4.50;99.20;;;;;;4996870;28;20030;-66
2022/12/25 06:39:32;;;;;;;11.88;4.63;;;4.50;99.30;;;;;;4997491;28;20038;-67
2022/12/25 06:41:57;;;;;;;11.68;4.57;;;4.50;99.10;;;;;;4988275;28;20037;-65
2022/12/25 06:44:24;;;;;;;8.52;4.65;;;4.50;99.00;;;;;;4989372;28;20041;-64
2022/12/25 06:46:52;;;;;;;7.88;4.38;;;4.50;98.80;;;;;;4989773;28;20112;-67
2022/12/25 06:49:18;;;;;;;7.63;3.63;;;4.40;98.90;;;;;;4989338;28;20032;-65
2022/12/25 06:51:44;;;;;;;7.03;3.95;;;4.40;99.00;;;;;;4990773;28;20042;-65
2022/12/25 06:54:10;;;;;;;8.48;4.32;;;4.40;99.10;;;;;;4994041;28;20023;-67
2022/12/25 06:56:36;;;;;;;8.80;4.10;;;4.40;99.30;;;;;;4989096;28;20038;-65
2022/12/25 06:59:05;;;;;;;7.65;4.25;;;4.40;99.40;;;;;;4988523;28;20030;-67
2022/12/25 07:01:45;;;;;;;5.95;3.28;;;4.40;99.50;;;;;;4995258;28;20128;-68
2022/12/25 07:04:23;;;;;;;5.68;3.65;;;4.40;99.50;;;;;;4994456;28;20040;-70
2022/12/25 07:06:49;;;;;;;9.50;4.13;;;4.40;99.70;;;;;;4995034;28;20045;-68
2022/12/25 07:09:15;;;;;;;8.02;3.88;;;4.40;99.60;;;;;;4988808;28;20043;-68
2022/12/25 07:11:41;;;;;;;12.55;4.40;;;4.50;99.50;;;;;;4984352;28;20092;-67
2022/12/25 07:14:06;;;;;;;7.43;3.75;;;4.40;99.00;;;;;;4994001;28;20030;-68
2022/12/25 07:16:32;;;;;;;9.43;4.00;;;4.40;98.90;;;;;;4991904;28;20073;-67
2022/12/25 07:19:00;;;;;;;5.95;3.55;;;4.40;99.00;;;;;;4992666;28;20038;-68
2022/12/25 07:21:25;;;;;;;11.70;4.40;;;4.40;99.10;;;;;;4986860;28;20088;-68
2022/12/25 07:23:51;;;;;;;10.30;3.65;;;4.30;99.30;;;;;;4983508;28;20068;-68
2022/12/25 07:26:17;;;;;;;12.05;4.97;;;4.30;99.40;;;;;;4990957;28;20113;-68
2022/12/25 07:28:43;;;;;;;9.70;4.32;;;4.30;99.60;;;;;;4989286;28;20073;-69
2022/12/25 07:31:14;;;;;;;7.55;3.67;;;4.40;99.70;;;;;;4982538;28;20038;-68
2022/12/25 07:33:41;;;;;;;8.98;4.20;;;4.40;99.70;;;;;;4991535;28;20037;-68
2022/12/25 07:36:07;;;;;;;11.68;5.22;;;4.40;99.80;;;;;;4989283;28;20049;-66
2022/12/25 07:38:33;;;;;;;11.07;4.47;;;4.40;99.80;;;;;;4992912;28;20383;-66
2022/12/25 07:40:59;;;;;;;8.82;3.88;;;4.50;99.80;;;;;;4994966;28;20045;-66
2022/12/25 07:43:25;;;;;;;8.02;4.53;;;4.50;99.60;;;;;;4985797;28;20113;-67
2022/12/25 07:45:58;;;;;;;10.80;4.70;;;4.50;99.80;;;;;;4982469;28;20053;-66
2022/12/25 07:48:25;;;;;;;13.10;5.22;;;4.60;99.90;;;;;;4986190;28;20045;-65
2022/12/25 07:51:03;;;;;;;11.82;5.93;;;4.60;99.90;;;;;;4989720;28;20038;-67
2022/12/25 07:53:28;;;;;;;11.90;4.65;;;4.70;99.70;;;;;;4989637;28;20030;-65
2022/12/25 07:56:11;;;;;;;11.00;5.10;;;4.70;99.70;;;;;;5000623;28;20034;-66
2022/12/25 07:58:37;;;;;;;13.77;5.22;;;4.80;99.70;;;;;;5009827;28;20053;-67
2022/12/25 08:01:09;;;;;;;11.27;5.88;;;4.80;99.80;;;;;;4995546;28;20072;-66
2022/12/25 08:03:35;;;;;;;8.77;5.00;;;4.80;99.90;;;;;;4994583;28;20538;-66
2022/12/25 08:06:03;;;;;;;13.30;4.93;;;4.90;99.90;;;;;;4990045;28;20027;-66
2022/12/25 08:08:29;;;;;;;13.27;4.75;;;4.90;99.90;;;;;;4993592;28;20045;-67
2022/12/25 08:10:55;;;;;;;10.70;5.07;;;5.00;99.90;;;;;;4996988;28;20031;-67
2022/12/25 08:13:20;;;;;;;11.43;4.93;;;5.10;99.90;;;;;;5004097;28;20034;-67
2022/12/25 08:15:46;;;;;;;9.73;5.53;;;5.20;99.90;;;;;;4995432;28;20026;-68
2022/12/25 08:18:12;;;;;;;8.50;5.07;;;5.20;99.90;;;;;;4993100;28;20034;-67
2022/12/25 08:20:38;;;;;;;7.70;4.63;;;5.30;99.90;;;;;;5005115;28;20034;-66
2022/12/25 08:23:04;;;;;;;10.02;4.53;;;5.30;99.90;;;;;;4993616;28;20038;-67
2022/12/25 08:25:30;;;;;;;7.63;4.15;;;5.40;99.70;;;;;;5000891;28;20041;-67
2022/12/25 08:27:57;;;;;;;24.58;5.88;;;5.40;99.60;;;;;;4993858;28;20029;-67
2022/12/25 08:30:23;;;;;;;12.13;5.50;;;5.40;99.40;;;;;;4993785;28;20100;-67
2022/12/25 08:32:49;;;;;;;10.90;5.97;;;5.40;99.20;;;;;;4998710;28;20029;-67
2022/12/25 08:35:15;;;;;;;15.00;7.68;;;5.50;99.40;;;;;;4992422;28;20030;-68
2022/12/25 08:37:40;;;;;;;10.30;5.93;;;5.50;99.30;;;;;;4998207;28;20122;-67
2022/12/25 08:40:07;;;;;;;10.10;5.13;;;5.50;99.10;;;;;;4995108;28;20491;-67
2022/12/25 08:42:32;;;;;;;37.33;5.60;;;5.50;98.80;;;;;;4994130;28;20763;-67
2022/12/25 08:44:58;;;;;;;8.95;4.95;;;5.50;98.80;;;;;;4994316;28;20041;-65
2022/12/25 08:47:24;;;;;;;8.40;4.18;;;5.50;98.70;;;;;;4994224;28;20575;-66
2022/12/25 08:49:50;;;;;;;5.78;3.72;;;5.50;98.60;;;;;;4988455;28;20041;-67
2022/12/25 08:52:15;;;;;;;8.95;4.30;;;5.60;98.70;;;;;;4995089;28;20069;-67
2022/12/25 08:54:41;;;;;;;13.13;7.43;;;5.60;98.50;;;;;;4995190;28;20034;-67
2022/12/25 08:57:07;;;;;;;10.80;6.50;;;5.70;98.30;;;;;;4997270;28;20398;-67
2022/12/25 08:59:33;;;;;;;7.40;5.20;;;5.70;98.40;;;;;;4992454;28;20030;-67
2022/12/25 09:01:59;;;;;;;5.57;3.83;;;5.80;98.60;;;;;;4984042;28;20108;-66
2022/12/25 09:04:25;;;;;;;4.90;3.22;;;6.10;98.60;;;;;;4990356;28;20045;-66
2022/12/25 09:06:51;;;;;;;5.38;3.45;;;6.30;98.30;;;;;;4992800;28;20026;-67
2022/12/25 09:09:16;;;;;;;5.68;3.58;;;6.60;97.90;;;;;;4992529;28;20029;-67
2022/12/25 09:11:42;;;;;;;8.40;4.05;;;6.90;97.60;;;;;;4992970;28;20510;-67
2022/12/25 09:14:08;;;;;;;7.80;4.70;;;7.20;96.30;;;;;;4992880;28;20120;-67
2022/12/25 09:16:35;;;;;;;13.60;8.43;;;7.60;95.20;;;;;;4994325;28;20042;-67
2022/12/25 09:19:00;;;;;;;6.10;4.20;;;8.10;95.00;;;;;;4989066;28;20034;-66
2022/12/25 09:21:26;;;;;;;5.75;3.33;;;8.50;93.90;;;;;;4994650;28;20041;-67
2022/12/25 09:23:52;;;;;;;4.88;3.00;;;8.90;93.10;;;;;;4992862;28;20772;-66
2022/12/25 09:26:18;;;;;;;5.68;3.20;;;9.30;91.90;;;;;;4992411;28;20057;-66
2022/12/25 09:28:45;;;;;;;6.85;3.38;;;9.50;91.00;;;;;;4995471;28;20038;-67
2022/12/25 09:31:10;;;;;;;8.38;3.47;;;9.70;90.80;;;;;;4990623;28;20792;-66
2022/12/25 09:33:36;;;;;;;4.88;3.15;;;9.80;90.40;;;;;;4993688;28;20173;-66
2022/12/25 09:36:05;;;;;;;6.47;3.60;;;9.80;90.00;;;;;;4997206;28;20030;-66
2022/12/25 09:38:32;;;;;;;6.82;3.80;;;9.90;90.40;;;;;;4989838;28;20255;-66
2022/12/25 09:41:06;;;;;;;7.35;3.70;;;10.10;90.00;;;;;;4990694;28;20030;-66
2022/12/25 09:43:38;;;;;;;5.85;3.08;;;10.30;88.70;;;;;;4994909;28;20037;-67
2022/12/25 09:46:06;;;;;;;5.65;4.18;;;10.30;89.20;;;;;;4992750;28;20092;-65
2022/12/25 09:48:33;;;;;;;6.68;3.88;;;10.60;87.30;;;;;;4988153;28;20030;-66
2022/12/25 09:51:04;;;;;;;5.13;3.47;;;10.90;86.00;;;;;;4995567;28;20022;-66
2022/12/25 09:53:43;;;;;;;6.63;3.50;;;11.00;85.30;;;;;;5003505;28;20033;-69
2022/12/25 09:56:17;;;;;;;7.35;3.78;;;11.00;85.90;;;;;;4991726;28;20037;-67
2022/12/25 09:58:42;;;;;;;6.72;3.90;;;11.00;85.40;;;;;;4988377;28;20034;-66
2022/12/25 10:01:11;;;;;;;9.45;4.45;;;11.00;85.50;;;;;;4998360;28;20100;-66
2022/12/25 10:04:15;;;;;;;8.43;4.05;;;10.80;85.20;;;;;;5000542;28;20063;-66
2022/12/25 10:07:02;;;;;;;6.32;4.18;;;10.40;86.40;;;;;;4983806;28;20045;-70
2022/12/25 10:09:52;;;;;;;10.02;4.22;;;10.00;88.80;;;;;;4991724;28;20049;-70
2022/12/25 10:12:22;;;;;;;9.10;4.57;;;9.80;90.20;;;;;;4989524;28;20034;-70
2022/12/25 10:15:13;;;;;;;9.75;4.55;;;9.50;90.90;;;;;;4991137;28;20053;-69
2022/12/25 10:18:01;;;;;;;11.20;5.05;;;9.10;91.70;;;;;;4991761;28;20728;-69
2022/12/25 10:20:55;;;;;;;6.28;3.97;;;8.90;92.30;;;;;;4987202;28;20175;-70
2022/12/25 10:23:34;;;;;;;9.32;4.38;;;8.60;93.30;;;;;;4995149;28;20037;-69
2022/12/25 10:26:00;;;;;;;6.63;3.92;;;8.40;94.10;;;;;;4996424;28;20031;-70
2022/12/25 10:28:43;;;;;;;10.15;4.13;;;8.30;94.70;;;;;;4994382;28;20513;-69
2022/12/25 10:31:24;;;;;;;6.63;3.40;;;8.20;95.00;;;;;;4988176;28;20395;-71
2022/12/25 10:33:51;;;;;;;6.93;3.50;;;8.20;95.40;;;;;;4994584;28;20039;-71
2022/12/25 10:36:23;;;;;;;6.82;3.40;;;8.20;95.50;;;;;;4989877;28;20403;-71
2022/12/25 10:38:49;;;;;;;8.40;3.70;;;8.40;95.50;;;;;;4997082;28;20124;-70
2022/12/25 10:41:24;;;;;;;11.50;6.00;;;8.60;95.00;;;;;;4996518;28;20076;-71
2022/12/25 10:43:53;;;;;;;11.30;6.60;;;8.70;94.80;;;;;;4993174;28;20394;-71
2022/12/25 10:46:20;;;;;;;8.20;4.07;;;8.60;95.10;;;;;;4992209;28;20073;-68
2022/12/25 10:48:59;;;;;;;7.93;3.72;;;8.60;95.30;;;;;;4991371;28;20037;-69
2022/12/25 10:51:27;;;;;;;6.93;3.30;;;8.50;95.30;;;;;;4994812;28;20030;-68
2022/12/25 10:53:53;;;;;;;7.75;3.90;;;8.50;95.70;;;;;;4990322;28;20149;-68
2022/12/25 10:56:19;;;;;;;8.35;4.82;;;8.50;95.80;;;;;;4996740;28;20549;-68
2022/12/25 10:58:45;;;;;;;10.20;3.85;;;8.50;95.90;;;;;;4994408;28;20034;-68
2022/12/25 11:01:12;;;;;;;10.23;4.22;;;8.40;96.30;;;;;;4995816;28;20038;-68
2022/12/25 11:03:45;;;;;;;8.45;3.85;;;8.40;96.50;;;;;;4992856;28;20030;-68
2022/12/25 11:06:26;;;;;;;9.02;3.63;;;8.50;96.80;;;;;;4996064;28;20544;-68
2022/12/25 11:09:00;;;;;;;6.57;3.47;;;8.70;96.60;;;;;;4999043;28;20052;-69
2022/12/25 11:11:28;;;;;;;9.43;3.90;;;8.90;96.20;;;;;;4994622;28;20021;-69
2022/12/25 11:13:57;;;;;;;12.05;4.03;;;9.60;95.70;;;;;;4993987;28;20033;-69
2022/12/25 11:16:34;;;;;;;11.75;3.70;;;10.60;93.00;;;;;;4988805;28;20132;-68
2022/12/25 11:19:00;;;;;;;8.35;3.38;;;10.70;92.30;;;;;;4996736;28;20135;-68
2022/12/25 11:21:29;;;;;;;12.60;3.70;;;10.60;92.70;;;;;;4995878;28;20042;-69
2022/12/25 11:24:03;;;;;;;12.70;3.50;;;10.30;93.20;;;;;;4993772;28;20046;-69
2022/12/25 11:26:35;;;;;;;9.68;3.53;;;9.90;94.00;;;;;;4992729;28;20041;-71
2022/12/25 11:29:02;;;;;;;9.02;3.67;;;9.80;94.50;;;;;;4994063;28;20014;-70
2022/12/25 11:31:39;;;;;;;13.52;4.15;;;9.60;94.90;;;;;;4994965;28;20037;-70
2022/12/25 11:34:17;;;;;;;9.18;3.95;;;9.50;95.10;;;;;;4994665;28;20505;-70
2022/12/25 11:36:48;;;;;;;7.45;4.07;;;9.30;95.40;;;;;;4997771;28;20117;-70
2022/12/25 11:39:25;;;;;;;9.82;3.67;;;9.20;95.80;;;;;;5000376;28;20122;-69
2022/12/25 11:42:00;;;;;;;7.88;3.78;;;9.10;96.00;;;;;;4995763;28;20029;-71
2022/12/25 11:44:52;;;;;;;8.13;4.18;;;9.00;96.20;;;;;;5003618;28;20038;-70
2022/12/25 11:47:44;;;;;;;8.98;3.38;;;8.80;96.40;;;;;;4996060;28;20179;-70
2022/12/25 11:50:22;;;;;;;5.93;3.55;;;8.80;96.70;;;;;;4990017;28;20142;-70
2022/12/25 11:52:49;;;;;;;10.57;4.00;;;8.70;97.00;;;;;;4993355;28;20026;-70
2022/12/25 11:55:27;;;;;;;10.02;4.28;;;8.70;97.10;;;;;;4998653;28;20117;-69
2022/12/25 11:57:58;;;;;;;8.27;4.00;;;8.60;97.10;;;;;;4995434;28;20456;-70
2022/12/25 12:00:24;;;;;;;9.55;4.70;;;8.70;97.40;;;;;;4991875;28;20038;-70
2022/12/25 12:03:19;;;;;;;9.15;4.50;;;8.70;97.30;;;;;;4993117;28;20034;-70
2022/12/25 12:05:48;;;;;;;10.38;4.13;;;8.70;97.50;;;;;;4995547;28;20042;-70
2022/12/25 12:08:14;;;;;;;10.75;4.25;;;8.70;97.60;;;;;;4992871;28;20395;-71
2022/12/25 12:11:17;;;;;;;10.15;4.00;;;8.70;97.80;;;;;;4994326;28;20046;-70
2022/12/25 12:13:43;;;;;;;8.90;3.95;;;8.70;97.90;;;;;;4997627;28;20025;-70
2022/12/25 12:16:09;;;;;;;9.85;4.18;;;8.80;97.90;;;;;;4990581;28;20035;-70
2022/12/25 12:18:35;;;;;;;8.15;4.20;;;8.80;97.70;;;;;;5027011;28;20065;-69
2022/12/25 12:21:27;;;;;;;8.05;4.00;;;8.80;97.70;;;;;;4992279;28;20032;-70
2022/12/25 12:24:04;;;;;;;7.25;3.83;;;8.70;97.80;;;;;;4995296;28;20099;-69
2022/12/25 12:26:37;;;;;;;11.05;4.93;;;8.80;97.80;;;;;;4993090;28;20120;-70
2022/12/25 12:29:07;;;;;;;8.85;3.97;;;8.80;97.90;;;;;;4994799;28;20030;-70
2022/12/25 12:31:46;;;;;;;7.53;3.67;;;8.80;97.90;;;;;;4995881;28;20085;-70
2022/12/25 12:34:27;;;;;;;8.98;4.30;;;8.80;97.80;;;;;;4992718;28;20056;-70
2022/12/25 12:37:02;;;;;;;7.22;4.88;;;8.80;97.80;;;;;;4992691;28;20042;-73
2022/12/25 12:39:35;;;;;;;8.57;4.25;;;8.80;98.00;;;;;;4998409;28;20041;-68
2022/12/25 12:42:01;;;;;;;8.80;4.40;;;8.80;98.00;;;;;;4991226;28;20922;-68
2022/12/25 12:44:32;;;;;;;12.15;4.45;;;8.80;98.00;;;;;;4998269;28;20088;-68
2022/12/25 12:46:58;;;;;;;8.32;4.45;;;8.70;98.20;;;;;;4994454;28;20050;-68
2022/12/25 12:49:27;;;;;;;8.23;3.83;;;8.70;98.40;;;;;;4988907;28;20034;-68
2022/12/25 12:52:44;;;;;;;10.13;4.30;;;8.70;98.40;;;;;;4995550;28;20033;-68
2022/12/25 12:55:15;;;;;;;10.65;5.07;;;8.70;98.40;;;;;;4984570;28;20034;-69
2022/12/25 12:57:41;;;;;;;7.93;4.00;;;8.70;98.60;;;;;;4995130;28;20038;-69
2022/12/25 13:00:18;;;;;;;10.40;4.05;;;8.80;98.80;;;;;;4991785;28;20029;-68
2022/12/25 13:03:52;;;;;;;11.13;4.13;;;8.80;99.10;;;;;;4993385;28;20038;-67
2022/12/25 13:06:27;;;;;;;8.77;3.80;;;8.80;99.00;;;;;;4974127;28;20039;-69
2022/12/25 13:09:20;;;;;;;7.18;4.03;;;8.90;98.80;;;;;;4969948;28;20031;-68
2022/12/25 13:11:46;;;;;;;10.02;4.38;;;8.90;98.80;;;;;;4982582;28;20422;-68
2022/12/25 13:14:19;;;;;;;10.65;4.20;;;9.00;98.90;;;;;;5002766;28;20064;-68
2022/12/25 13:16:47;;;;;;;9.77;3.95;;;9.00;98.90;;;;;;4994508;28;20042;-68
2022/12/25 13:19:21;;;;;;;11.32;4.10;;;8.90;99.00;;;;;;4990530;28;20082;-68
2022/12/25 13:21:57;;;;;;;9.95;4.47;;;8.90;99.00;;;;;;5002382;28;20054;-68
2022/12/25 13:24:26;;;;;;;8.93;4.50;;;8.90;99.20;;;;;;4991819;28;20703;-69
2022/12/25 13:26:52;;;;;;;12.75;4.60;;;8.90;99.20;;;;;;4996195;28;20120;-68
2022/12/25 13:29:33;;;;;;;9.25;3.67;;;9.00;99.00;;;;;;4992725;28;20065;-68
2022/12/25 13:32:01;;;;;;;5.53;3.40;;;8.90;99.10;;;;;;4997499;28;20069;-68
2022/12/25 13:34:31;;;;;;;11.00;4.05;;;8.90;99.00;;;;;;4994320;28;20030;-69
2022/12/25 13:36:58;;;;;;;5.75;3.55;;;8.90;98.90;;;;;;4994052;28;20033;-69
2022/12/25 13:39:25;;;;;;;7.15;3.58;;;8.90;99.00;;;;;;4992198;28;20035;-68
2022/12/25 13:42:05;;;;;;;13.65;5.18;;;9.00;99.00;;;;;;5024324;28;20066;-68
2022/12/25 13:45:00;;;;;;;8.90;3.83;;;9.00;99.00;;;;;;4992891;28;20042;-68
2022/12/25 13:47:31;;;;;;;11.38;4.32;;;9.00;99.10;;;;;;4990179;28;20061;-67
2022/12/25 13:49:58;;;;;;;8.02;3.75;;;8.90;99.20;;;;;;4993834;28;20022;-68
2022/12/25 13:52:33;;;;;;;10.02;4.53;;;8.90;99.40;;;;;;4992881;28;20030;-68
2022/12/25 13:55:01;;;;;;;7.65;4.00;;;8.90;99.60;;;;;;4991704;28;20034;-68
2022/12/25 13:57:32;;;;;;;9.35;3.92;;;8.90;99.70;;;;;;4992151;28;20204;-68
2022/12/25 13:59:58;;;;;;;17.25;6.20;;;8.90;99.60;;;;;;4993835;28;20034;-67
2022/12/25 14:02:34;;;;;;;11.50;5.28;;;9.00;99.50;;;;;;4989567;28;20081;-67
2022/12/25 14:05:00;;;;;;;;;;;9.00;99.30;;;;;;4989806;28;20076;-67
2022/12/25 14:07:26;;;;;;;10.67;5.20;;;9.00;99.40;;;;;;4987016;28;20016;-68
2022/12/25 14:09:59;;;;;;;10.25;4.63;;;9.00;99.30;;;;;;4990591;28;20590;-67
2022/12/25 14:12:26;;;;;;;9.60;4.93;;;8.90;99.40;;;;;;4991328;28;20044;-67
2022/12/25 14:14:53;;;;;;;10.70;4.13;;;8.90;99.60;;;;;;4991735;28;20030;-68
2022/12/25 14:17:21;;;;;;;6.57;3.67;;;8.90;99.50;;;;;;4990640;28;20482;-67
2022/12/25 14:19:59;;;;;;;7.95;3.78;;;8.90;99.70;;;;;;4990238;28;20034;-67
2022/12/25 14:22:26;;;;;;;7.32;3.35;;;8.80;99.70;;;;;;4990291;28;20041;-68
2022/12/25 14:24:53;;;;;;;6.75;3.10;;;8.80;99.90;;;;;;4991184;28;20402;-66
2022/12/25 14:27:29;;;;;;;7.05;3.75;;;8.80;99.90;;;;;;4991579;28;20058;-67
2022/12/25 14:29:56;;;;;;;6.78;3.05;;;8.80;99.90;;;;;;4994394;28;20035;-67
2022/12/25 14:32:25;;;;;;;9.02;3.78;;;8.80;99.90;;;;;;4995806;28;20065;-67
2022/12/25 14:34:55;;;;;;;11.95;3.60;;;8.80;99.90;;;;;;4987985;28;20092;-67
2022/12/25 14:37:24;;;;;;;11.60;4.00;;;8.80;99.90;;;;;;4992130;28;20061;-67
2022/12/25 14:40:21;;;;;;;7.40;3.53;;;8.70;99.90;;;;;;4986723;28;20042;-68
2022/12/25 14:42:59;;;;;;;11.30;4.10;;;8.70;99.90;;;;;;4989632;28;20048;-68
2022/12/25 14:45:37;;;;;;;12.95;4.72;;;8.70;99.90;;;;;;4988710;28;20092;-67
2022/12/25 14:48:17;;;;;;;9.13;3.83;;;8.80;99.90;;;;;;4989665;28;20035;-67
2022/12/25 14:50:54;;;;;;;8.80;4.47;;;8.70;99.90;;;;;;4988874;28;20129;-67
2022/12/25 14:53:22;;;;;;;11.73;4.75;;;8.70;99.90;;;;;;4991723;28;20069;-67
2022/12/25 14:55:51;;;;;;;11.23;4.32;;;8.70;99.90;;;;;;4989544;28;20026;-67